createdAt,value
2022-08-29T00:00:27.134Z,17.20
2022-08-29T00:02:56.677Z,17.23
2022-08-29T00:05:28.185Z,17.11
2022-08-29T00:07:56.733Z,17.35
2022-08-29T00:10:23.326Z,17.35
2022-08-29T00:12:50.242Z,17.37
2022-08-29T00:15:17.321Z,17.36
2022-08-29T00:17:43.985Z,17.44
2022-08-29T00:20:14.099Z,17.42
2022-08-29T00:22:40.869Z,17.35
2022-08-29T00:25:08.495Z,17.52
2022-08-29T00:27:35.279Z,17.48
2022-08-29T00:30:02.178Z,17.50
2022-08-29T00:32:35.001Z,17.56
2022-08-29T00:35:23.690Z,17.54
2022-08-29T00:37:52.115Z,17.52
2022-08-29T00:40:23.454Z,17.48
2022-08-29T00:42:50.160Z,17.43
2022-08-29T00:45:18.216Z,17.46
2022-08-29T00:47:52.842Z,17.53
2022-08-29T00:50:26.358Z,17.52
2022-08-29T00:52:53.279Z,17.54
2022-08-29T00:55:22.586Z,17.55
2022-08-29T00:57:55.657Z,17.53
2022-08-29T01:00:23.023Z,17.50
2022-08-29T01:02:50.802Z,17.48
2022-08-29T01:05:19.843Z,17.55
2022-08-29T01:07:47.693Z,17.54
2022-08-29T01:10:35.186Z,17.54
2022-08-29T01:13:03.401Z,17.50
2022-08-29T01:15:34.106Z,17.60
2022-08-29T01:18:03.094Z,17.51
2022-08-29T01:21:00.533Z,17.53
2022-08-29T01:23:34.339Z,17.48
2022-08-29T01:26:02.231Z,17.42
2022-08-29T01:28:32.013Z,17.44
2022-08-29T01:31:09.511Z,17.47
2022-08-29T01:33:57.076Z,17.43
2022-08-29T01:36:26.680Z,17.47
2022-08-29T01:38:54.216Z,17.44
2022-08-29T01:41:22.810Z,17.26
2022-08-29T01:43:52.013Z,17.23
2022-08-29T01:46:21.945Z,17.26
2022-08-29T01:48:48.652Z,17.10
2022-08-29T01:51:15.977Z,17.18
2022-08-29T01:53:42.757Z,17.20
2022-08-29T01:56:15.944Z,17.25
2022-08-29T01:58:43.633Z,17.25
2022-08-29T02:01:10.660Z,17.19
2022-08-29T02:03:37.340Z,17.13
2022-08-29T02:06:04.499Z,17.09
2022-08-29T02:08:31.366Z,16.98
2022-08-29T02:10:58.545Z,16.85
2022-08-29T02:13:25.228Z,16.70
2022-08-29T02:15:52.091Z,16.60
2022-08-29T02:18:18.661Z,16.62
2022-08-29T02:20:45.614Z,16.37
2022-08-29T02:23:29.893Z,16.50
2022-08-29T02:25:57.353Z,16.43
2022-08-29T02:28:23.922Z,16.40
2022-08-29T02:30:56.978Z,16.17
2022-08-29T02:33:24.620Z,16.22
2022-08-29T02:35:51.993Z,16.27
2022-08-29T02:38:19.045Z,16.19
2022-08-29T02:40:46.880Z,15.98
2022-08-29T02:43:13.618Z,16.00
2022-08-29T02:45:42.031Z,16.19
2022-08-29T02:48:09.397Z,15.98
2022-08-29T02:50:36.145Z,16.06
2022-08-29T02:53:02.765Z,15.81
2022-08-29T02:55:29.392Z,16.22
2022-08-29T02:57:55.959Z,16.09
2022-08-29T03:00:25.468Z,16.06
2022-08-29T03:02:53.169Z,16.07
2022-08-29T03:05:23.446Z,16.00
2022-08-29T03:07:51.099Z,16.17
2022-08-29T03:10:19.191Z,15.95
2022-08-29T03:12:46.766Z,15.94
2022-08-29T03:15:14.382Z,15.81
2022-08-29T03:17:40.966Z,15.64
2022-08-29T03:20:08.717Z,15.64
2022-08-29T03:22:35.454Z,15.66
2022-08-29T03:25:03.325Z,15.71
2022-08-29T03:27:31.866Z,15.81
2022-08-29T03:29:59.178Z,15.85
2022-08-29T03:32:26.559Z,15.65
2022-08-29T03:34:54.346Z,15.75
2022-08-29T03:37:20.932Z,15.97
2022-08-29T03:39:47.678Z,15.99
2022-08-29T03:42:14.270Z,16.16
2022-08-29T03:44:42.023Z,16.41
2022-08-29T03:47:11.065Z,16.55
2022-08-29T03:49:37.961Z,16.59
2022-08-29T03:52:05.972Z,16.76
2022-08-29T03:54:33.008Z,17.21
2022-08-29T03:56:59.575Z,17.47
2022-08-29T03:59:26.206Z,17.66
2022-08-29T04:01:52.869Z,17.57
2022-08-29T04:04:38.721Z,18.00
2022-08-29T04:07:06.574Z,18.10
2022-08-29T04:09:33.338Z,18.42
2022-08-29T04:12:00.090Z,18.33
2022-08-29T04:14:26.771Z,18.53
2022-08-29T04:16:53.344Z,18.60
2022-08-29T04:19:21.325Z,18.71
2022-08-29T04:21:49.016Z,18.69
2022-08-29T04:24:16.650Z,18.74
2022-08-29T04:26:43.320Z,18.88
2022-08-29T04:29:11.698Z,19.08
2022-08-29T04:31:39.374Z,19.48
2022-08-29T04:34:07.398Z,18.93
2022-08-29T04:36:35.183Z,19.17
2022-08-29T04:39:01.839Z,19.38
2022-08-29T04:41:29.092Z,19.48
2022-08-29T04:43:55.674Z,19.65
2022-08-29T04:46:24.145Z,19.89
2022-08-29T04:48:51.602Z,19.93
2022-08-29T04:51:18.173Z,20.01
2022-08-29T04:53:44.973Z,20.23
2022-08-29T04:56:12.901Z,20.11
2022-08-29T04:58:41.250Z,20.47
2022-08-29T05:01:14.100Z,20.06
2022-08-29T05:03:40.707Z,19.73
2022-08-29T05:06:12.190Z,19.87
2022-08-29T05:08:40.859Z,19.66
2022-08-29T05:11:14.278Z,19.42
2022-08-29T05:13:42.595Z,19.46
2022-08-29T05:16:11.427Z,19.51
2022-08-29T05:18:39.666Z,19.48
2022-08-29T05:21:06.581Z,19.67
2022-08-29T05:23:33.483Z,19.61
2022-08-29T05:26:02.109Z,19.82
2022-08-29T05:28:30.574Z,19.68
2022-08-29T05:30:57.673Z,19.72
2022-08-29T05:33:24.494Z,19.97
2022-08-29T05:35:51.134Z,20.06
2022-08-29T05:38:18.103Z,19.98
2022-08-29T05:40:44.776Z,20.21
2022-08-29T05:43:11.728Z,19.97
2022-08-29T05:45:39.527Z,20.23
2022-08-29T05:48:08.066Z,20.33
2022-08-29T05:50:41.879Z,20.55
2022-08-29T05:53:09.934Z,20.69
2022-08-29T05:55:41.254Z,20.66
2022-08-29T05:58:07.869Z,20.81
2022-08-29T06:00:34.622Z,20.91
2022-08-29T06:03:01.365Z,20.86
2022-08-29T06:05:28.079Z,20.78
2022-08-29T06:07:54.695Z,21.00
2022-08-29T06:10:21.473Z,20.92
2022-08-29T06:12:48.162Z,21.00
2022-08-29T06:15:14.808Z,21.28
2022-08-29T06:17:41.472Z,21.45
2022-08-29T06:20:09.714Z,21.72
2022-08-29T06:22:40.298Z,21.79
2022-08-29T06:25:35.106Z,21.73
2022-08-29T06:27:54.846Z,21.97
2022-08-29T06:30:21.566Z,21.81
2022-08-29T06:32:48.614Z,22.27
2022-08-29T06:35:15.335Z,22.12
2022-08-29T06:37:42.535Z,22.38
2022-08-29T06:40:09.627Z,22.54
2022-08-29T06:42:36.252Z,22.65
2022-08-29T06:45:02.919Z,22.79
2022-08-29T06:47:29.515Z,22.85
2022-08-29T06:49:56.108Z,22.97
2022-08-29T06:52:22.708Z,22.85
2022-08-29T06:57:16.035Z,22.82
2022-08-29T06:59:42.712Z,22.92
2022-08-29T07:02:09.358Z,23.18
2022-08-29T07:04:36.295Z,23.09
2022-08-29T07:07:02.898Z,23.37
2022-08-29T07:09:31.229Z,23.30
2022-08-29T07:11:57.895Z,23.64
2022-08-29T07:14:24.484Z,23.37
2022-08-29T07:16:51.135Z,23.48
2022-08-29T07:19:17.736Z,23.66
2022-08-29T07:21:44.290Z,23.64
2022-08-29T07:24:10.970Z,23.80
2022-08-29T07:26:42.419Z,23.96
2022-08-29T07:29:15.465Z,23.93
2022-08-29T07:31:42.394Z,24.06
2022-08-29T07:34:09.511Z,24.12
2022-08-29T07:36:37.168Z,24.16
2022-08-29T07:39:08.828Z,24.29
2022-08-29T07:41:36.144Z,24.18
2022-08-29T07:44:03.046Z,24.41
2022-08-29T07:46:29.780Z,24.39
2022-08-29T07:48:58.507Z,24.57
2022-08-29T07:51:25.425Z,24.67
2022-08-29T07:53:52.723Z,24.72
2022-08-29T07:56:27.058Z,24.68
2022-08-29T07:58:54.912Z,24.55
2022-08-29T08:01:22.039Z,24.64
2022-08-29T08:03:50.748Z,24.70
2022-08-29T08:06:19.425Z,24.95
2022-08-29T08:08:52.260Z,25.22
2022-08-29T08:11:20.875Z,25.34
2022-08-29T08:13:48.026Z,25.37
2022-08-29T08:16:17.619Z,25.54
2022-08-29T08:18:45.051Z,25.42
2022-08-29T08:21:12.270Z,25.45
2022-08-29T08:23:40.127Z,25.74
2022-08-29T08:26:07.838Z,25.74
2022-08-29T08:28:34.508Z,25.57
2022-08-29T08:31:05.934Z,25.30
2022-08-29T08:33:35.287Z,25.56
2022-08-29T08:36:03.783Z,25.80
2022-08-29T08:38:31.563Z,26.20
2022-08-29T08:41:10.861Z,26.11
2022-08-29T08:43:45.897Z,26.21
2022-08-29T08:46:12.599Z,26.17
2022-08-29T08:48:40.177Z,26.40
2022-08-29T08:51:07.941Z,26.31
2022-08-29T08:53:36.462Z,26.53
2022-08-29T08:56:11.783Z,26.29
2022-08-29T08:58:50.394Z,26.76
2022-08-29T09:01:34.874Z,26.55
2022-08-29T09:04:23.224Z,27.10
2022-08-29T09:07:05.120Z,27.11
2022-08-29T09:09:47.613Z,26.99
2022-08-29T09:12:20.231Z,27.16
2022-08-29T09:14:56.530Z,26.94
2022-08-29T09:17:41.368Z,27.29
2022-08-29T09:20:14.045Z,27.50
2022-08-29T09:22:42.411Z,27.55
2022-08-29T09:25:11.340Z,27.56
2022-08-29T09:27:38.701Z,27.79
2022-08-29T09:30:20.830Z,27.92
2022-08-29T09:33:20.019Z,27.70
2022-08-29T09:35:51.901Z,27.44
2022-08-29T09:38:18.424Z,27.74
2022-08-29T09:40:53.509Z,27.87
2022-08-29T09:43:22.142Z,28.03
2022-08-29T09:46:09.445Z,28.02
2022-08-29T09:48:54.235Z,28.11
2022-08-29T09:51:23.475Z,27.55
2022-08-29T09:53:51.876Z,27.64
2022-08-29T09:56:25.081Z,28.11
2022-08-29T09:59:27.931Z,28.31
2022-08-29T10:02:30.419Z,28.30
2022-08-29T10:05:05.873Z,28.29
2022-08-29T10:07:51.609Z,28.37
2022-08-29T10:10:23.070Z,28.34
2022-08-29T10:12:57.425Z,28.26
2022-08-29T10:15:49.454Z,28.04
2022-08-29T10:19:01.384Z,28.09
2022-08-29T10:21:47.251Z,28.04
2022-08-29T10:25:02.059Z,28.44
2022-08-29T10:27:40.242Z,28.63
2022-08-29T10:30:26.526Z,28.50
2022-08-29T10:33:11.860Z,28.27
2022-08-29T10:35:54.568Z,28.54
2022-08-29T10:38:56.989Z,28.42
2022-08-29T10:41:26.658Z,28.87
2022-08-29T10:44:09.376Z,28.76
2022-08-29T10:46:59.095Z,28.83
2022-08-29T10:49:44.449Z,28.78
2022-08-29T10:52:17.472Z,28.75
2022-08-29T10:55:05.626Z,28.87
2022-08-29T10:57:54.938Z,28.76
2022-08-29T11:00:29.421Z,28.86
2022-08-29T11:03:15.126Z,29.05
2022-08-29T11:05:53.941Z,29.01
2022-08-29T11:08:34.641Z,29.05
2022-08-29T11:11:01.634Z,28.98
2022-08-29T11:13:38.437Z,29.03
2022-08-29T11:16:24.592Z,29.48
2022-08-29T11:19:06.023Z,29.63
2022-08-29T11:21:37.824Z,29.90
2022-08-29T11:24:05.559Z,29.93
2022-08-29T11:26:32.125Z,29.76
2022-08-29T11:29:37.740Z,30.13
2022-08-29T11:32:10.170Z,29.34
2022-08-29T11:34:42.610Z,29.38
2022-08-29T11:37:37.213Z,29.50
2022-08-29T11:40:10.123Z,29.71
2022-08-29T11:42:55.459Z,29.62
2022-08-29T11:45:29.644Z,29.81
2022-08-29T11:48:10.140Z,29.60
2022-08-29T11:50:38.598Z,29.81
2022-08-29T11:53:16.771Z,29.47
2022-08-29T11:55:45.115Z,29.20
2022-08-29T11:58:14.824Z,29.38
2022-08-29T12:00:49.019Z,29.51
2022-08-29T12:03:45.389Z,29.57
2022-08-29T12:06:14.739Z,29.53
2022-08-29T12:08:54.198Z,29.14
2022-08-29T12:11:21.242Z,29.14
2022-08-29T12:13:48.288Z,29.48
2022-08-29T12:16:18.723Z,29.53
2022-08-29T12:18:57.811Z,29.16
2022-08-29T12:21:36.498Z,29.49
2022-08-29T12:24:08.128Z,29.57
2022-08-29T12:26:46.185Z,29.48
2022-08-29T12:29:26.685Z,29.63
2022-08-29T12:32:23.826Z,29.84
2022-08-29T12:35:08.276Z,30.11
2022-08-29T12:38:10.701Z,29.81
2022-08-29T12:40:43.393Z,30.04
2022-08-29T12:43:23.639Z,30.54
2022-08-29T12:45:51.644Z,30.94
2022-08-29T12:48:27.663Z,30.95
2022-08-29T12:50:54.287Z,30.97
2022-08-29T12:53:25.419Z,30.95
2022-08-29T12:55:57.527Z,30.63
2022-08-29T12:58:45.330Z,30.02
2022-08-29T13:01:38.021Z,29.81
2022-08-29T13:04:10.842Z,30.05
2022-08-29T13:06:38.488Z,30.22
2022-08-29T13:09:06.342Z,30.18
2022-08-29T13:11:33.534Z,30.24
2022-08-29T13:14:11.970Z,30.05
2022-08-29T13:16:40.202Z,29.90
2022-08-29T13:19:19.545Z,29.47
2022-08-29T13:21:46.118Z,29.47
2022-08-29T13:24:20.789Z,29.25
2022-08-29T13:27:04.425Z,29.34
2022-08-29T13:29:37.128Z,28.98
2022-08-29T13:32:23.148Z,29.21
2022-08-29T13:35:01.277Z,29.10
2022-08-29T13:37:34.381Z,29.21
2022-08-29T13:40:41.192Z,29.31
2022-08-29T13:43:07.986Z,29.42
2022-08-29T13:45:35.621Z,29.56
2022-08-29T13:48:13.354Z,29.42
2022-08-29T13:50:40.723Z,29.30
2022-08-29T13:53:07.459Z,28.90
2022-08-29T13:55:34.658Z,28.75
2022-08-29T13:58:01.401Z,28.44
2022-08-29T14:00:32.363Z,28.62
2022-08-29T14:03:03.782Z,28.73
2022-08-29T14:05:30.454Z,29.09
2022-08-29T14:07:57.195Z,29.00
2022-08-29T14:10:23.810Z,29.00
2022-08-29T14:12:50.504Z,28.90
2022-08-29T14:15:21.139Z,28.88
2022-08-29T14:17:48.116Z,28.87
2022-08-29T14:20:17.587Z,28.86
2022-08-29T14:22:44.585Z,28.74
2022-08-29T14:25:12.505Z,28.84
2022-08-29T14:27:39.958Z,28.73
2022-08-29T14:30:16.158Z,28.64
2022-08-29T14:32:42.798Z,28.40
2022-08-29T14:35:11.094Z,28.29
2022-08-29T14:37:53.117Z,28.21
2022-08-29T14:40:21.840Z,28.15
2022-08-29T14:42:49.025Z,28.11
2022-08-29T14:45:15.761Z,28.12
2022-08-29T14:47:43.509Z,27.54
2022-08-29T14:50:12.791Z,27.47
2022-08-29T14:52:39.666Z,27.12
2022-08-29T14:55:07.633Z,26.75
2022-08-29T14:57:35.957Z,26.52
2022-08-29T15:00:11.662Z,26.65
2022-08-29T15:02:38.901Z,26.68
2022-08-29T15:05:06.202Z,26.71
2022-08-29T15:07:33.057Z,26.86
2022-08-29T15:09:59.985Z,26.70
2022-08-29T15:12:29.057Z,26.98
2022-08-29T15:14:56.119Z,27.37
2022-08-29T15:17:23.669Z,27.44
2022-08-29T15:20:34.279Z,27.40
2022-08-29T15:22:38.008Z,27.26
2022-08-29T15:25:06.320Z,27.11
2022-08-29T15:27:32.934Z,27.43
2022-08-29T15:29:59.602Z,27.56
2022-08-29T15:32:26.299Z,28.25
2022-08-29T15:34:53.238Z,28.42
2022-08-29T15:37:19.898Z,28.65
2022-08-29T15:39:46.551Z,28.78
2022-08-29T15:42:17.416Z,28.59
2022-08-29T15:44:44.455Z,28.19
2022-08-29T15:47:11.382Z,27.93
2022-08-29T15:49:38.641Z,27.72
2022-08-29T15:52:05.253Z,27.61
2022-08-29T15:54:31.896Z,27.37
2022-08-29T15:56:58.676Z,27.21
2022-08-29T15:59:47.224Z,27.07
2022-08-29T16:02:13.371Z,27.00
2022-08-29T16:04:44.706Z,26.87
2022-08-29T16:07:13.564Z,26.83
2022-08-29T16:09:41.463Z,26.67
2022-08-29T16:12:08.986Z,26.60
2022-08-29T16:17:22.258Z,26.44
2022-08-29T16:19:48.846Z,26.30
2022-08-29T16:22:15.487Z,26.32
2022-08-29T16:24:42.206Z,26.12
2022-08-29T16:27:08.805Z,26.05
2022-08-29T16:29:35.518Z,26.09
2022-08-29T16:32:02.425Z,26.05
2022-08-29T16:34:29.525Z,26.05
2022-08-29T16:36:57.166Z,25.69
2022-08-29T16:39:24.033Z,25.92
2022-08-29T16:41:50.842Z,26.04
2022-08-29T16:44:17.442Z,26.41
2022-08-29T16:46:44.053Z,26.43
2022-08-29T16:49:13.255Z,26.51
2022-08-29T16:51:39.913Z,26.49
2022-08-29T16:54:06.507Z,26.50
2022-08-29T16:56:33.108Z,26.22
2022-08-29T16:59:00.170Z,26.45
2022-08-29T17:01:35.502Z,26.29
2022-08-29T17:04:03.458Z,26.51
2022-08-29T17:06:30.987Z,26.52
2022-08-29T17:08:58.627Z,26.49
2022-08-29T17:11:25.794Z,26.44
2022-08-29T17:13:52.323Z,26.39
2022-08-29T17:16:19.611Z,26.37
2022-08-29T17:18:46.799Z,26.29
2022-08-29T17:21:13.818Z,26.41
2022-08-29T17:23:40.842Z,26.33
2022-08-29T17:26:10.461Z,26.28
2022-08-29T17:28:38.315Z,26.17
2022-08-29T17:31:05.756Z,26.12
2022-08-29T17:33:33.168Z,26.08
2022-08-29T17:36:00.132Z,25.83
2022-08-29T17:38:27.437Z,25.95
2022-08-29T17:41:02.323Z,26.08
2022-08-29T17:43:32.815Z,26.08
2022-08-29T17:45:59.606Z,25.99
2022-08-29T17:48:26.386Z,26.09
2022-08-29T17:50:54.007Z,26.02
2022-08-29T17:53:21.190Z,26.09
2022-08-29T17:55:47.921Z,26.11
2022-08-29T17:58:15.026Z,26.06
2022-08-29T18:00:41.861Z,26.09
2022-08-29T18:03:08.493Z,26.00
2022-08-29T18:05:35.133Z,26.00
2022-08-29T18:08:02.023Z,25.91
2022-08-29T18:10:28.859Z,25.85
2022-08-29T18:12:55.469Z,25.77
2022-08-29T18:15:22.264Z,25.73
2022-08-29T18:17:51.402Z,25.58
2022-08-29T18:20:19.650Z,25.65
2022-08-29T18:22:47.549Z,25.60
2022-08-29T18:25:14.895Z,25.34
2022-08-29T18:27:49.254Z,25.01
2022-08-29T18:30:16.629Z,24.93
2022-08-29T18:32:43.703Z,24.94
2022-08-29T18:35:11.071Z,25.00
2022-08-29T18:37:37.757Z,24.96
2022-08-29T18:40:05.795Z,24.92
2022-08-29T18:42:46.138Z,24.79
2022-08-29T18:45:13.310Z,24.74
2022-08-29T18:47:40.101Z,24.82
2022-08-29T18:50:25.914Z,24.81
2022-08-29T18:52:55.303Z,24.74
2022-08-29T18:55:23.391Z,24.63
2022-08-29T18:57:50.635Z,24.66
2022-08-29T19:00:17.866Z,24.64
2022-08-29T19:02:44.999Z,24.46
2022-08-29T19:05:11.954Z,24.49
2022-08-29T19:07:39.101Z,24.31
2022-08-29T19:10:06.642Z,24.40
2022-08-29T19:12:33.877Z,24.49
2022-08-29T19:15:00.534Z,24.32
2022-08-29T19:17:27.242Z,24.32
2022-08-29T19:20:12.526Z,24.16
2022-08-29T19:22:39.392Z,24.16
2022-08-29T19:25:08.678Z,24.14
2022-08-29T19:27:43.794Z,24.04
2022-08-29T19:30:13.427Z,23.82
2022-08-29T19:32:40.557Z,23.71
2022-08-29T19:35:07.765Z,23.68
2022-08-29T19:37:34.382Z,23.72
2022-08-29T19:40:01.830Z,23.73
2022-08-29T19:42:28.409Z,23.60
2022-08-29T19:44:56.475Z,23.63
2022-08-29T19:47:23.934Z,23.42
2022-08-29T19:49:50.952Z,23.40
2022-08-29T19:52:18.006Z,23.44
2022-08-29T19:54:44.632Z,23.42
2022-08-29T19:57:14.639Z,23.38
2022-08-29T19:59:42.339Z,23.46
2022-08-29T20:02:09.465Z,23.37
2022-08-29T20:04:36.509Z,23.25
2022-08-29T20:07:03.957Z,23.29
2022-08-29T20:09:31.600Z,23.26
2022-08-29T20:11:59.272Z,23.21
2022-08-29T20:14:25.987Z,23.23
2022-08-29T20:16:52.717Z,23.18
2022-08-29T20:19:21.398Z,23.09
2022-08-29T20:21:49.189Z,23.12
2022-08-29T20:24:16.654Z,23.07
2022-08-29T20:26:44.850Z,22.96
2022-08-29T20:29:12.262Z,23.01
2022-08-29T20:31:39.778Z,22.93
2022-08-29T20:34:06.535Z,22.97
2022-08-29T20:36:51.634Z,22.81
2022-08-29T20:39:18.698Z,22.97
2022-08-29T20:41:55.580Z,22.94
2022-08-29T20:44:23.922Z,22.93
2022-08-29T20:46:52.025Z,22.85
2022-08-29T20:49:21.833Z,22.75
2022-08-29T20:51:49.011Z,22.80
2022-08-29T20:54:19.475Z,22.77
2022-08-29T20:56:46.674Z,22.61
2022-08-29T20:59:13.471Z,22.40
2022-08-29T21:01:41.701Z,22.49
2022-08-29T21:04:27.046Z,22.39
2022-08-29T21:06:59.556Z,22.53
2022-08-29T21:09:26.267Z,22.46
2022-08-29T21:11:53.513Z,22.39
2022-08-29T21:14:22.521Z,22.41
2022-08-29T21:16:53.393Z,22.43
2022-08-29T21:19:21.205Z,22.43
2022-08-29T21:21:48.495Z,22.30
2022-08-29T21:24:15.785Z,22.36
2022-08-29T21:26:42.395Z,22.36
2022-08-29T21:29:09.368Z,22.32
2022-08-29T21:31:36.703Z,22.15
2022-08-29T21:34:06.951Z,22.14
2022-08-29T21:36:34.726Z,22.18
2022-08-29T21:39:01.455Z,22.11
2022-08-29T21:41:29.909Z,22.04
2022-08-29T21:43:56.842Z,21.84
2022-08-29T21:46:31.614Z,21.96
2022-08-29T21:49:01.365Z,21.93
2022-08-29T21:51:30.076Z,21.92
2022-08-29T21:53:57.612Z,21.96
2022-08-29T21:56:25.928Z,21.85
2022-08-29T21:58:54.642Z,21.75
2022-08-29T22:01:30.137Z,21.79
2022-08-29T22:03:58.643Z,21.68
2022-08-29T22:06:27.639Z,21.66
2022-08-29T22:08:55.521Z,21.66
2022-08-29T22:11:25.120Z,21.64
2022-08-29T22:14:04.833Z,21.53
2022-08-29T22:16:31.702Z,21.53
2022-08-29T22:19:14.261Z,21.27
2022-08-29T22:21:47.189Z,21.47
2022-08-29T22:24:15.993Z,21.47
2022-08-29T22:26:43.100Z,21.39
2022-08-29T22:29:11.708Z,21.29
2022-08-29T22:31:38.953Z,21.27
2022-08-29T22:34:09.321Z,21.35
2022-08-29T22:36:35.913Z,21.29
2022-08-29T22:39:02.519Z,21.22
2022-08-29T22:41:29.224Z,21.25
2022-08-29T22:44:25.402Z,21.20
2022-08-29T22:46:43.960Z,21.17
2022-08-29T22:49:10.656Z,21.09
2022-08-29T22:51:37.282Z,21.02
2022-08-29T22:54:22.413Z,20.96
2022-08-29T22:56:49.021Z,21.02
2022-08-29T22:59:15.627Z,20.92
2022-08-29T23:01:43.832Z,20.96
2022-08-29T23:04:11.621Z,20.94
2022-08-29T23:06:38.353Z,20.82
2022-08-29T23:09:05.752Z,20.80
2022-08-29T23:11:32.683Z,20.80
2022-08-29T23:13:59.293Z,20.77
2022-08-29T23:16:25.926Z,20.65
2022-08-29T23:18:52.538Z,20.58
2022-08-29T23:21:22.747Z,20.79
2022-08-29T23:23:50.829Z,20.80
2022-08-29T23:26:18.157Z,20.74
2022-08-29T23:28:45.287Z,20.63
2022-08-29T23:31:13.653Z,20.66
2022-08-29T23:33:40.389Z,20.72
2022-08-29T23:36:07.159Z,20.71
2022-08-29T23:38:33.868Z,20.66
2022-08-29T23:41:01.046Z,20.71
2022-08-29T23:43:27.926Z,20.69
2022-08-29T23:45:55.710Z,20.66
2022-08-29T23:48:26.020Z,20.69
2022-08-29T23:50:53.662Z,20.66
2022-08-29T23:53:21.720Z,20.64
2022-08-29T23:55:48.864Z,20.64
2022-08-29T23:58:16.006Z,20.63
